Time;durP1;ratioP1;P1;durP2;ratioP2;P2;SDS_P1;SDS_P2;PMS_P1;PMS_P2;Temp;Humidity;BMP_temperature;BMP_pressure;BME280_temperature;BME280_humidity;BME280_pressure;Samples;Min_cycle;Max_cycle;Signal;HPM_P1;HPM_P2
2021/12/24 00:01:55;;;;;;;11.18;5.53;;;6.30;99.90;;;;;;5047529;28;20047;-79
2021/12/24 00:04:22;;;;;;;20.42;8.90;;;6.30;99.90;;;;;;5079507;28;20045;-79
2021/12/24 00:06:49;;;;;;;5.50;3.30;;;6.30;99.90;;;;;;5030860;28;20037;-78
2021/12/24 00:09:21;;;;;;;0.25;0.25;;;6.30;99.90;;;;;;5047918;28;20413;-79
2021/12/24 00:11:49;;;;;;;21.63;6.88;;;6.30;99.90;;;;;;5044380;28;20041;-78
2021/12/24 00:14:15;;;;;;;19.45;8.50;;;6.30;99.90;;;;;;4990985;28;1140615;-78
2021/12/24 00:16:52;;;;;;;8.77;5.00;;;6.30;99.90;;;;;;5048168;28;20517;-79
2021/12/24 00:19:39;;;;;;;1.77;1.65;;;6.40;99.90;;;;;;5048597;28;20098;-78
2021/12/24 00:35:33;;;;;;;18.05;6.47;;;6.50;99.90;;;;;;5047999;28;20127;-78
2021/12/24 00:38:05;;;;;;;4.45;2.00;;;6.50;99.90;;;;;;5081860;28;20049;-78
2021/12/24 00:40:35;;;;;;;2.17;1.98;;;6.50;99.90;;;;;;5064605;28;20127;-78
2021/12/24 00:43:01;;;;;;;1.38;1.27;;;6.50;99.90;;;;;;5031976;28;20033;-78
2021/12/24 00:45:32;;;;;;;7.18;4.65;;;6.50;99.90;;;;;;5030809;28;20053;-78
2021/12/24 00:48:00;;;;;;;4.60;3.83;;;6.60;99.90;;;;;;5041590;28;20033;-79
2021/12/24 00:50:44;;;;;;;1.33;1.20;;;6.60;99.90;;;;;;5045421;28;20780;-79
2021/12/24 00:55:02;;;;;;;7.95;3.67;;;6.60;99.90;;;;;;5047826;28;20045;-79
2021/12/24 00:55:56;;;;;;;0.57;0.57;;;6.60;99.90;;;;;;5081185;28;20428;-78
2021/12/24 00:58:21;;;;;;;0.20;0.20;;;6.70;99.90;;;;;;5043869;28;20037;-79
2021/12/24 01:00:47;;;;;;;1.17;1.17;;;6.70;99.90;;;;;;5048045;28;20106;-78
2021/12/24 01:03:13;;;;;;;8.73;4.40;;;6.70;99.90;;;;;;5033130;28;20049;-78
2021/12/24 01:05:40;;;;;;;1.05;0.88;;;6.70;99.90;;;;;;5047889;28;20118;-78
2021/12/24 01:08:08;;;;;;;7.38;3.55;;;6.70;99.90;;;;;;5048231;28;20382;-79
2021/12/24 01:10:39;;;;;;;0.75;0.75;;;6.70;99.90;;;;;;5063890;28;20052;-78
2021/12/24 01:13:05;;;;;;;3.30;2.17;;;6.80;99.90;;;;;;5064776;28;20421;-78
2021/12/24 01:15:34;;;;;;;0.70;0.65;;;6.80;99.90;;;;;;5033214;28;20041;-79
2021/12/24 01:20:51;;;;;;;3.85;2.80;;;6.80;99.90;;;;;;5076182;28;20118;-78
2021/12/24 01:44:59;;;;;;;0.68;0.68;;;7.00;99.90;;;;;;5051074;28;20425;-78
2021/12/24 01:47:24;;;;;;;1.42;1.08;;;7.00;99.90;;;;;;5047943;28;20045;-78
2021/12/24 01:49:51;;;;;;;0.57;0.57;;;7.00;99.90;;;;;;5050883;28;20057;-78
2021/12/24 01:52:16;;;;;;;3.88;2.33;;;7.10;99.90;;;;;;5034799;28;20063;-78
2021/12/24 01:54:43;;;;;;;0.60;0.52;;;7.10;99.90;;;;;;5034022;28;20033;-78
2021/12/24 01:57:12;;;;;;;1.98;0.98;;;7.20;99.90;;;;;;5027791;28;20124;-78
2021/12/24 01:59:38;;;;;;;0.22;0.22;;;7.20;99.90;;;;;;5079952;28;20147;-78
2021/12/24 02:02:04;;;;;;;0.90;0.90;;;7.20;99.90;;;;;;5050503;28;20049;-78
2021/12/24 02:04:29;;;;;;;0.77;0.55;;;7.20;99.90;;;;;;5084275;28;20491;-78
2021/12/24 02:06:55;;;;;;;1.23;1.13;;;7.20;99.90;;;;;;5033436;28;20069;-78
2021/12/24 02:09:21;;;;;;;3.15;1.27;;;7.30;99.90;;;;;;5049861;28;20076;-78
2021/12/24 02:11:46;;;;;;;1.95;0.68;;;7.20;99.90;;;;;;5027056;28;20563;-78
2021/12/24 02:14:20;;;;;;;2.35;1.83;;;7.30;99.90;;;;;;5081250;28;20124;-78
2021/12/24 02:17:18;;;;;;;4.40;2.30;;;7.30;99.90;;;;;;5024704;28;20489;-78
2021/12/24 02:30:40;;;;;;;4.50;2.75;;;7.40;99.90;;;;;;5082156;28;20049;-78
2021/12/24 02:33:06;;;;;;;4.78;2.53;;;7.40;99.90;;;;;;5050458;28;20045;-78
2021/12/24 02:35:33;;;;;;;8.20;4.40;;;7.50;99.90;;;;;;5049289;28;20073;-78
2021/12/24 02:37:59;;;;;;;1.70;1.60;;;7.50;99.90;;;;;;5033155;28;20527;-78
2021/12/24 02:40:26;;;;;;;6.00;3.60;;;7.50;99.90;;;;;;5041147;28;20045;-78
2021/12/24 02:42:54;;;;;;;7.40;2.97;;;7.60;99.90;;;;;;5050199;28;20093;-78
2021/12/24 02:45:22;;;;;;;6.32;3.70;;;7.60;99.90;;;;;;5049730;28;20052;-78
2021/12/24 02:55:35;;;;;;;14.82;5.18;;;7.70;99.90;;;;;;5083014;28;20077;-79
2021/12/24 02:58:02;;;;;;;4.45;2.83;;;7.70;99.90;;;;;;5032500;28;20084;-78
2021/12/24 03:00:28;;;;;;;10.82;5.38;;;7.70;99.90;;;;;;5049516;28;20048;-78
2021/12/24 03:02:56;;;;;;;13.98;4.22;;;7.80;99.90;;;;;;5066413;28;20044;-78
2021/12/24 03:05:24;;;;;;;8.35;4.97;;;7.80;99.90;;;;;;5044978;28;20051;-78
2021/12/24 03:07:50;;;;;;;7.78;3.53;;;7.80;99.90;;;;;;5020889;28;20041;-78
2021/12/24 03:10:18;;;;;;;6.47;3.00;;;7.80;99.90;;;;;;5032941;28;20095;-79
2021/12/24 03:12:46;;;;;;;16.20;4.72;;;7.80;99.90;;;;;;5049247;28;20199;-78
2021/12/24 03:15:15;;;;;;;41.80;11.43;;;7.90;99.90;;;;;;5037326;28;20117;-79
2021/12/24 03:17:49;;;;;;;13.65;4.82;;;7.90;99.90;;;;;;5041760;28;20045;-78
2021/12/24 03:20:16;;;;;;;2.15;1.98;;;8.00;99.90;;;;;;5048890;28;20131;-78
2021/12/24 03:23:34;;;;;;;54.42;10.85;;;8.00;99.90;;;;;;5049307;28;20115;-78
2021/12/24 03:25:28;;;;;;;6.53;4.07;;;8.00;99.90;;;;;;5064500;28;20051;-78
2021/12/24 03:27:54;;;;;;;17.65;4.47;;;8.20;99.90;;;;;;5048823;28;20041;-78
2021/12/24 03:30:19;;;;;;;22.83;5.65;;;8.20;99.90;;;;;;5040291;28;20045;-78
2021/12/24 03:32:45;;;;;;;23.20;5.55;;;8.20;99.90;;;;;;5026830;28;20393;-78
2021/12/24 03:35:11;;;;;;;30.48;5.90;;;8.20;99.90;;;;;;5049366;28;20025;-79
2021/12/24 03:37:36;;;;;;;41.97;8.45;;;8.20;99.90;;;;;;5048834;28;20044;-78
2021/12/24 03:40:04;;;;;;;7.60;3.80;;;8.30;99.90;;;;;;5080259;28;20493;-79
2021/12/24 03:42:30;;;;;;;50.40;11.10;;;8.30;99.90;;;;;;5049199;28;20098;-78
2021/12/24 03:45:09;;;;;;;20.30;6.03;;;8.40;99.90;;;;;;5049251;28;20044;-78
2021/12/24 03:47:38;;;;;;;25.30;6.88;;;8.40;99.90;;;;;;5048191;28;20049;-78
2021/12/24 03:50:09;;;;;;;13.85;5.00;;;8.50;99.90;;;;;;5032478;28;20090;-79
2021/12/24 03:53:00;;;;;;;36.85;8.68;;;8.50;99.90;;;;;;5032742;28;20940;-79
2021/12/24 03:55:21;;;;;;;24.88;8.05;;;8.60;99.90;;;;;;5048520;28;20063;-79
2021/12/24 03:57:47;;;;;;;44.75;9.77;;;8.60;99.90;;;;;;5048753;28;20037;-79
2021/12/24 04:00:22;;;;;;;58.38;13.63;;;8.60;99.90;;;;;;5049142;28;20041;-79
2021/12/24 04:02:48;;;;;;;66.57;11.88;;;8.60;99.90;;;;;;5048643;28;20037;-79
2021/12/24 04:05:15;;;;;;;34.67;6.88;;;8.70;99.90;;;;;;5041128;28;20415;-78
2021/12/24 04:07:41;;;;;;;77.32;17.70;;;8.70;99.90;;;;;;5047087;28;20084;-78
2021/12/24 04:10:39;;;;;;;39.92;9.15;;;8.70;99.90;;;;;;5048701;28;20566;-78
2021/12/24 04:13:05;;;;;;;40.92;13.65;;;8.70;99.90;;;;;;5032069;28;20517;-78
2021/12/24 04:15:31;;;;;;;62.55;16.98;;;8.70;99.90;;;;;;5031052;28;20116;-79
2021/12/24 04:17:57;;;;;;;40.97;11.57;;;8.80;99.90;;;;;;5046625;28;20136;-78
2021/12/24 04:25:51;;;;;;;46.72;13.57;;;8.80;99.90;;;;;;5045543;28;20045;-78
2021/12/24 04:28:16;;;;;;;41.20;13.80;;;8.80;99.90;;;;;;5048420;28;20040;-78
2021/12/24 04:30:48;;;;;;;45.45;13.32;;;8.80;99.90;;;;;;5028030;28;20041;-79
2021/12/24 04:33:25;;;;;;;21.50;7.13;;;8.80;99.90;;;;;;5046164;28;20090;-78
2021/12/24 04:36:16;;;;;;;45.05;14.13;;;8.80;99.90;;;;;;5031684;28;20041;-79
2021/12/24 05:03:23;;;;;;;26.58;10.63;;;8.90;99.90;;;;;;5051263;28;20108;-78
2021/12/24 05:05:53;;;;;;;26.63;9.60;;;8.90;99.90;;;;;;5051429;28;20056;-78
2021/12/24 05:08:22;;;;;;;19.17;8.20;;;8.80;99.90;;;;;;5050353;28;20041;-78
2021/12/24 05:10:51;;;;;;;28.17;11.63;;;8.90;99.90;;;;;;5035809;28;20504;-78
2021/12/24 05:13:19;;;;;;;29.52;11.52;;;8.90;99.90;;;;;;5051813;28;20048;-77
2021/12/24 05:15:48;;;;;;;30.70;8.02;;;8.90;99.90;;;;;;5051381;28;20072;-78
2021/12/24 05:19:05;;;;;;;32.70;13.95;;;8.90;99.90;;;;;;5061844;28;20052;-78
2021/12/24 05:23:47;;;;;;;38.88;14.23;;;8.90;99.90;;;;;;5058104;28;20049;-78
2021/12/24 05:26:14;;;;;;;22.75;8.63;;;8.90;99.90;;;;;;5041761;28;20707;-78
2021/12/24 05:28:40;;;;;;;28.98;11.27;;;8.90;99.90;;;;;;5039887;28;20822;-78
2021/12/24 05:31:06;;;;;;;16.30;6.60;;;8.90;99.90;;;;;;5033612;28;20508;-78
2021/12/24 05:33:32;;;;;;;22.77;12.05;;;8.90;99.90;;;;;;5034931;28;20040;-78
2021/12/24 05:35:58;;;;;;;15.23;7.00;;;8.90;99.90;;;;;;5051024;28;20033;-78
2021/12/24 05:38:24;;;;;;;30.83;13.07;;;8.90;99.90;;;;;;5033857;28;20532;-78
2021/12/24 05:40:49;;;;;;;28.08;11.15;;;8.90;99.90;;;;;;5034330;28;20039;-78
2021/12/24 05:43:15;;;;;;;42.95;16.02;;;8.90;99.90;;;;;;5034341;28;20063;-78
2021/12/24 05:45:41;;;;;;;19.95;9.73;;;8.90;99.90;;;;;;5084158;28;20049;-78
2021/12/24 05:48:07;;;;;;;21.35;7.70;;;8.90;99.90;;;;;;5033887;28;20206;-78
2021/12/24 05:50:33;;;;;;;18.45;7.82;;;8.90;99.90;;;;;;5067779;28;20044;-78
2021/12/24 05:52:58;;;;;;;14.63;5.50;;;8.90;99.90;;;;;;5041816;28;20041;-78
2021/12/24 05:55:24;;;;;;;21.83;7.85;;;8.90;99.90;;;;;;5049862;28;20532;-78
2021/12/24 05:57:50;;;;;;;26.63;8.70;;;8.80;99.90;;;;;;5050757;28;20198;-78
2021/12/24 06:00:16;;;;;;;27.38;10.02;;;8.80;99.90;;;;;;5050348;28;20049;-78
2021/12/24 06:02:42;;;;;;;25.60;7.45;;;8.80;99.90;;;;;;5050323;28;20049;-78
2021/12/24 06:05:08;;;;;;;28.25;8.07;;;8.90;99.90;;;;;;5084079;28;20497;-78
2021/12/24 06:07:34;;;;;;;23.00;9.27;;;8.80;99.90;;;;;;5049454;28;20576;-78
2021/12/24 06:10:00;;;;;;;43.95;12.40;;;8.90;99.90;;;;;;5049866;28;20127;-78
2021/12/24 06:12:26;;;;;;;15.45;6.35;;;8.90;99.90;;;;;;5042276;28;20032;-78
2021/12/24 06:14:55;;;;;;;25.42;7.53;;;8.90;99.90;;;;;;5084034;28;20033;-78
2021/12/24 06:17:23;;;;;;;25.35;10.48;;;8.90;99.90;;;;;;5032964;28;20416;-78
2021/12/24 06:19:49;;;;;;;26.50;8.35;;;8.90;99.90;;;;;;5076930;28;20086;-78
2021/12/24 06:22:15;;;;;;;22.70;8.38;;;8.90;99.90;;;;;;5066550;28;20039;-78
2021/12/24 06:24:41;;;;;;;16.75;6.03;;;8.90;99.90;;;;;;5041330;28;20041;-78
2021/12/24 06:27:07;;;;;;;20.60;5.57;;;8.90;99.90;;;;;;5031510;28;20063;-78
2021/12/24 06:29:33;;;;;;;11.82;5.28;;;8.90;99.90;;;;;;5046888;28;20033;-78
2021/12/24 06:31:59;;;;;;;11.18;4.60;;;8.90;99.90;;;;;;5079895;28;20041;-78
2021/12/24 06:34:27;;;;;;;10.52;4.28;;;8.90;99.90;;;;;;5050797;28;20067;-79
2021/12/24 06:36:53;;;;;;;18.23;5.30;;;8.90;99.90;;;;;;5033305;28;20551;-78
2021/12/24 06:39:19;;;;;;;25.48;9.05;;;8.90;99.90;;;;;;5048863;28;20041;-78
2021/12/24 06:41:45;;;;;;;34.50;8.88;;;8.90;99.90;;;;;;5044612;28;20033;-78
2021/12/24 06:44:12;;;;;;;15.05;5.93;;;8.90;99.90;;;;;;5048996;28;20041;-78
2021/12/24 06:46:42;;;;;;;24.00;7.70;;;8.90;99.90;;;;;;5066100;28;20111;-78
2021/12/24 06:49:10;;;;;;;37.22;10.43;;;8.90;99.90;;;;;;5041600;28;20383;-78
2021/12/24 06:51:36;;;;;;;18.85;7.97;;;8.90;99.90;;;;;;5036195;28;20048;-78
2021/12/24 06:54:03;;;;;;;14.75;5.28;;;8.90;99.90;;;;;;5050068;28;20045;-78
2021/12/24 06:56:29;;;;;;;19.08;5.20;;;8.80;99.90;;;;;;5049281;28;20079;-78
2021/12/24 06:58:54;;;;;;;18.25;6.43;;;8.80;99.90;;;;;;5082013;28;20083;-78
2021/12/24 07:01:20;;;;;;;12.77;5.93;;;8.70;99.90;;;;;;5033398;28;20076;-78
2021/12/24 07:03:46;;;;;;;21.50;4.78;;;8.70;99.90;;;;;;5048991;28;20033;-78
2021/12/24 07:06:12;;;;;;;24.88;6.90;;;8.80;99.90;;;;;;5032973;28;20037;-78
2021/12/24 07:08:38;;;;;;;20.08;6.32;;;8.70;99.90;;;;;;5062857;28;20053;-78
2021/12/24 07:11:04;;;;;;;15.15;6.60;;;8.70;99.90;;;;;;5029996;28;20050;-78
2021/12/24 07:13:30;;;;;;;24.15;7.15;;;8.70;99.90;;;;;;5046757;28;20152;-78
2021/12/24 07:15:56;;;;;;;16.65;5.63;;;8.70;99.90;;;;;;5065196;28;20071;-78
2021/12/24 07:18:22;;;;;;;14.48;4.40;;;8.70;99.90;;;;;;5030084;28;20037;-79
2021/12/24 07:20:48;;;;;;;21.13;7.03;;;8.70;99.90;;;;;;5029792;28;20037;-78
2021/12/24 07:23:14;;;;;;;8.25;4.55;;;8.70;99.90;;;;;;5066767;28;20046;-78
2021/12/24 07:25:40;;;;;;;4.80;2.42;;;8.70;99.90;;;;;;5054351;28;20417;-78
2021/12/24 07:28:06;;;;;;;21.65;5.88;;;8.70;99.90;;;;;;5045837;28;20045;-78
2021/12/24 07:30:33;;;;;;;6.82;3.40;;;8.60;99.90;;;;;;5038230;28;20048;-79
2021/12/24 07:32:59;;;;;;;17.25;3.70;;;8.70;99.90;;;;;;5063240;28;20045;-78
2021/12/24 07:35:25;;;;;;;23.27;6.25;;;8.70;99.90;;;;;;5012958;28;20033;-78
2021/12/24 07:37:51;;;;;;;22.13;8.45;;;8.60;99.90;;;;;;5013289;28;20060;-78
2021/12/24 07:40:17;;;;;;;9.93;4.35;;;8.70;99.90;;;;;;5029398;28;20108;-78
2021/12/24 07:42:44;;;;;;;12.60;4.00;;;8.70;99.90;;;;;;5078575;28;20109;-78
2021/12/24 07:45:11;;;;;;;20.63;7.78;;;8.70;99.90;;;;;;5049342;28;20045;-78
2021/12/24 07:47:41;;;;;;;24.35;7.40;;;8.70;99.90;;;;;;5049044;28;20052;-78
2021/12/24 07:51:55;;;;;;;23.25;5.07;;;8.70;99.90;;;;;;5028417;28;20045;-78
2021/12/24 07:53:02;;;;;;;23.23;6.72;;;8.60;99.90;;;;;;5029210;28;20107;-78
2021/12/24 07:55:28;;;;;;;27.08;8.43;;;8.60;99.90;;;;;;5035550;28;20390;-78
2021/12/24 07:57:54;;;;;;;6.70;2.28;;;8.60;99.90;;;;;;5032126;28;20048;-78
2021/12/24 08:00:26;;;;;;;15.48;5.55;;;8.60;99.90;;;;;;5032320;28;20041;-78
2021/12/24 08:02:53;;;;;;;13.00;4.47;;;8.60;99.90;;;;;;5042465;28;20042;-78
2021/12/24 08:05:21;;;;;;;19.48;5.53;;;8.60;99.90;;;;;;5077169;28;20052;-78
2021/12/24 08:07:48;;;;;;;11.75;3.80;;;8.60;99.90;;;;;;5049515;28;20125;-78
2021/12/24 08:10:14;;;;;;;9.23;3.17;;;8.60;99.90;;;;;;5043701;28;20128;-78
2021/12/24 08:12:40;;;;;;;24.58;5.90;;;8.60;99.90;;;;;;5047875;28;20044;-78
2021/12/24 08:15:07;;;;;;;28.88;8.25;;;8.60;99.90;;;;;;5048541;28;20041;-78
2021/12/24 08:17:33;;;;;;;11.10;3.03;;;8.60;99.90;;;;;;5048673;28;20045;-78
2021/12/24 08:19:59;;;;;;;27.60;8.93;;;8.60;99.90;;;;;;5044960;28;20396;-78
2021/12/24 08:22:25;;;;;;;16.63;5.10;;;8.60;99.90;;;;;;5048362;28;20050;-78
2021/12/24 08:24:51;;;;;;;12.32;4.13;;;8.60;99.90;;;;;;5032337;28;20048;-78
2021/12/24 08:27:16;;;;;;;18.63;5.38;;;8.60;99.90;;;;;;5041984;28;20508;-78
2021/12/24 08:29:42;;;;;;;16.35;6.10;;;8.60;99.90;;;;;;5043941;28;20045;-78
2021/12/24 08:32:10;;;;;;;19.02;6.93;;;8.70;99.90;;;;;;5069171;28;20500;-78
2021/12/24 08:34:35;;;;;;;10.57;3.50;;;8.60;99.90;;;;;;5048170;28;20071;-78
2021/12/24 08:37:02;;;;;;;23.92;6.20;;;8.60;99.90;;;;;;5050180;28;20045;-78
2021/12/24 08:39:28;;;;;;;16.60;5.70;;;8.60;99.90;;;;;;5035757;28;20366;-78
2021/12/24 08:41:54;;;;;;;17.08;4.75;;;8.60;99.90;;;;;;5036386;28;20454;-78
2021/12/24 08:44:26;;;;;;;13.73;5.10;;;8.60;99.90;;;;;;5044366;28;20059;-78
2021/12/24 08:46:53;;;;;;;15.10;4.93;;;8.60;99.90;;;;;;5036023;28;20075;-78
2021/12/24 08:49:20;;;;;;;10.38;4.70;;;8.60;99.90;;;;;;5050050;28;20034;-77
2021/12/24 08:51:47;;;;;;;17.70;4.32;;;8.60;99.90;;;;;;5019137;28;20465;-78
2021/12/24 08:54:14;;;;;;;17.98;4.22;;;8.60;99.90;;;;;;5021409;28;20049;-77
2021/12/24 08:56:40;;;;;;;10.77;4.95;;;8.50;99.90;;;;;;5040493;28;20083;-78
2021/12/24 08:59:05;;;;;;;14.98;4.35;;;8.60;99.90;;;;;;5025405;28;20050;-77
2021/12/24 09:01:32;;;;;;;13.18;4.70;;;8.50;99.90;;;;;;5027575;28;20044;-78
2021/12/24 09:03:57;;;;;;;16.13;4.68;;;8.50;99.90;;;;;;5044415;28;20041;-78
2021/12/24 09:06:24;;;;;;;4.30;2.35;;;8.50;99.90;;;;;;5039695;28;20072;-78
2021/12/24 09:08:50;;;;;;;9.30;4.80;;;8.60;99.90;;;;;;5041385;28;20136;-78
2021/12/24 09:11:16;;;;;;;7.75;4.13;;;8.50;99.90;;;;;;5061891;28;20144;-78
2021/12/24 09:13:42;;;;;;;16.38;5.22;;;8.50;99.90;;;;;;5035472;28;20572;-78
2021/12/24 09:16:08;;;;;;;15.18;4.47;;;8.60;99.90;;;;;;5071776;28;20630;-78
2021/12/24 09:18:35;;;;;;;9.55;3.85;;;8.50;99.90;;;;;;5018532;28;20049;-78
2021/12/24 09:21:02;;;;;;;10.02;3.50;;;8.50;99.90;;;;;;5033685;28;20455;-78
2021/12/24 09:23:28;;;;;;;7.60;3.72;;;8.50;99.90;;;;;;5026795;28;20501;-78
2021/12/24 09:25:54;;;;;;;12.40;4.65;;;8.50;99.90;;;;;;5018155;28;20100;-78
2021/12/24 09:28:20;;;;;;;15.55;4.93;;;8.50;99.90;;;;;;5036582;28;20131;-78
2021/12/24 09:30:46;;;;;;;3.13;2.10;;;8.50;99.90;;;;;;5036581;28;20057;-78
2021/12/24 09:33:12;;;;;;;7.40;3.67;;;8.50;99.90;;;;;;5034904;28;20045;-78
2021/12/24 09:35:38;;;;;;;7.25;3.28;;;8.50;99.90;;;;;;5069994;28;20141;-78
2021/12/24 09:38:04;;;;;;;3.50;2.50;;;8.40;99.90;;;;;;5040246;28;20127;-78
2021/12/24 09:40:33;;;;;;;10.70;5.20;;;8.40;99.90;;;;;;5055844;28;20056;-78
2021/12/24 09:43:00;;;;;;;9.43;3.55;;;8.40;99.90;;;;;;5042409;28;20130;-77
2021/12/24 09:45:26;;;;;;;12.73;3.35;;;8.50;99.90;;;;;;5019517;28;20049;-78
2021/12/24 09:47:52;;;;;;;8.85;4.35;;;8.40;99.90;;;;;;5022215;28;20045;-78
2021/12/24 09:50:24;;;;;;;8.30;1.98;;;8.50;99.90;;;;;;5029092;28;20037;-78
2021/12/24 09:52:51;;;;;;;9.80;4.50;;;8.40;99.90;;;;;;5036041;28;20438;-78
2021/12/24 09:55:23;;;;;;;7.15;2.72;;;8.40;99.90;;;;;;5020068;28;20040;-78
2021/12/24 09:57:49;;;;;;;5.35;2.67;;;8.40;99.90;;;;;;5039076;28;20579;-78
2021/12/24 10:00:18;;;;;;;1.45;1.35;;;8.40;99.90;;;;;;5034743;28;20390;-78
2021/12/24 10:02:48;;;;;;;2.83;1.35;;;8.40;99.90;;;;;;5032845;28;20041;-78
2021/12/24 10:05:28;;;;;;;1.30;0.90;;;8.40;99.90;;;;;;5036473;28;20045;-78
2021/12/24 10:08:02;;;;;;;1.90;1.42;;;8.30;99.90;;;;;;5038840;28;20037;-78
2021/12/24 10:10:30;;;;;;;0.80;0.80;;;8.10;99.90;;;;;;5039093;28;20445;-77
2021/12/24 10:13:16;;;;;;;0.43;0.43;;;7.80;99.90;;;;;;5043302;28;20049;-77
2021/12/24 10:16:07;;;;;;;0.32;0.32;;;7.60;99.90;;;;;;5039377;28;20300;-77
2021/12/24 10:19:00;;;;;;;0.20;0.20;;;7.40;99.90;;;;;;5014697;28;20056;-78
2021/12/24 10:21:28;;;;;;;0.20;0.20;;;7.20;99.90;;;;;;5036774;28;20045;-77
2021/12/24 10:24:08;;;;;;;0.77;0.77;;;7.20;99.90;;;;;;5067059;28;20041;-77
2021/12/24 10:26:37;;;;;;;0.70;0.70;;;7.20;99.90;;;;;;5017239;28;20045;-77
2021/12/24 10:29:05;;;;;;;0.30;0.30;;;7.10;99.90;;;;;;5036778;28;20051;-77
2021/12/24 10:31:33;;;;;;;0.28;0.28;;;7.00;99.90;;;;;;5039965;28;20112;-77
2021/12/24 10:34:24;;;;;;;0.77;0.77;;;7.00;99.90;;;;;;5069520;28;20397;-77
2021/12/24 10:36:58;;;;;;;0.65;0.65;;;7.00;99.90;;;;;;5017790;28;20033;-77
2021/12/24 10:39:41;;;;;;;0.20;0.20;;;7.00;99.90;;;;;;5074880;28;20472;-78
2021/12/24 10:42:12;;;;;;;2.45;1.65;;;7.00;99.90;;;;;;5038210;28;20768;-77
2021/12/24 10:44:40;;;;;;;1.88;1.23;;;7.00;99.90;;;;;;5046279;28;20033;-78
2021/12/24 10:47:06;;;;;;;1.02;0.93;;;7.00;99.90;;;;;;5035453;28;20120;-77
2021/12/24 10:55:10;;;;;;;0.40;0.40;;;6.80;99.90;;;;;;5033162;28;20045;-77
2021/12/24 10:57:39;;;;;;;0.50;0.50;;;6.80;99.90;;;;;;5064691;28;20048;-77
2021/12/24 11:00:25;;;;;;;0.63;0.63;;;6.80;99.90;;;;;;5025552;28;20094;-77
2021/12/24 11:02:54;;;;;;;0.50;0.50;;;6.80;99.90;;;;;;5033943;28;20045;-77
2021/12/24 11:05:29;;;;;;;0.52;0.52;;;6.80;99.90;;;;;;5014565;28;20061;-77
2021/12/24 11:07:57;;;;;;;0.80;0.80;;;6.80;99.90;;;;;;5025959;28;20095;-77
2021/12/24 11:10:26;;;;;;;0.35;0.35;;;6.80;99.90;;;;;;5024410;28;20060;-77
2021/12/24 11:12:57;;;;;;;0.10;0.10;;;6.80;99.90;;;;;;5066289;28;20106;-77
2021/12/24 11:15:24;;;;;;;1.95;1.15;;;6.70;99.90;;;;;;5014208;28;20045;-78
2021/12/24 11:17:53;;;;;;;0.25;0.25;;;6.70;99.90;;;;;;5037188;28;20045;-78
2021/12/24 11:20:20;;;;;;;0.63;0.63;;;6.70;99.90;;;;;;5050625;28;20041;-78
2021/12/24 11:23:00;;;;;;;2.15;1.38;;;6.70;99.90;;;;;;5066403;28;20045;-77
2021/12/24 11:25:30;;;;;;;0.73;0.70;;;6.70;99.90;;;;;;5024416;28;20037;-78
2021/12/24 11:27:56;;;;;;;0.20;0.20;;;6.60;99.90;;;;;;5053031;28;20768;-77
2021/12/24 11:30:23;;;;;;;2.88;1.00;;;6.60;99.90;;;;;;5049652;28;20060;-77
2021/12/24 11:32:49;;;;;;;0.22;0.22;;;6.60;99.90;;;;;;5032322;28;20226;-78
2021/12/24 11:35:16;;;;;;;0.20;0.20;;;6.50;99.90;;;;;;5024112;28;20036;-77
2021/12/24 11:37:44;;;;;;;0.75;0.68;;;6.50;99.90;;;;;;5063701;28;20073;-78
2021/12/24 11:40:13;;;;;;;0.55;0.45;;;6.50;99.90;;;;;;5019787;28;20037;-77
2021/12/24 11:42:41;;;;;;;0.88;0.88;;;6.50;99.90;;;;;;5013288;28;20527;-77
2021/12/24 11:45:08;;;;;;;0.20;0.20;;;6.50;99.90;;;;;;5048880;28;20045;-77
2021/12/24 11:47:34;;;;;;;0.20;0.20;;;6.40;99.90;;;;;;5061950;28;20051;-78
2021/12/24 11:50:00;;;;;;;0.60;0.60;;;6.40;99.90;;;;;;5036638;28;20036;-77
2021/12/24 11:52:27;;;;;;;0.50;0.50;;;6.40;99.90;;;;;;5027440;28;20698;-77
2021/12/24 11:54:58;;;;;;;1.17;1.17;;;6.40;99.90;;;;;;5027740;28;20684;-77
2021/12/24 11:57:25;;;;;;;0.30;0.30;;;6.40;99.90;;;;;;5062701;28;20049;-78
2021/12/24 11:59:51;;;;;;;0.30;0.30;;;6.40;99.90;;;;;;5048064;28;20043;-78
2021/12/24 12:02:35;;;;;;;0.25;0.25;;;6.40;99.90;;;;;;5043502;28;20028;-78
2021/12/24 12:05:37;;;;;;;0.38;0.38;;;6.40;99.90;;;;;;5030478;28;20275;-78
2021/12/24 12:08:28;;;;;;;0.20;0.20;;;6.40;99.90;;;;;;5038586;28;20099;-76
2021/12/24 12:11:04;;;;;;;0.85;0.85;;;6.40;99.90;;;;;;5068804;28;20049;-75
2021/12/24 12:13:42;;;;;;;0.17;0.17;;;6.40;99.90;;;;;;5049637;28;20450;-75
2021/12/24 12:16:17;;;;;;;0.30;0.30;;;6.30;99.90;;;;;;5030894;28;20099;-75
2021/12/24 12:19:04;;;;;;;0.55;0.55;;;6.30;99.90;;;;;;5021075;28;20041;-76
2021/12/24 12:21:37;;;;;;;0.32;0.32;;;6.30;99.90;;;;;;5039888;28;20044;-77
2021/12/24 12:26:41;;;;;;;1.42;1.33;;;6.30;99.90;;;;;;5044296;28;20056;-76
2021/12/24 12:29:18;;;;;;;0.65;0.65;;;6.30;99.90;;;;;;5051781;28;20512;-76
2021/12/24 12:31:44;;;;;;;0.38;0.38;;;6.30;99.90;;;;;;5066368;28;20045;-76
2021/12/24 12:34:46;;;;;;;0.43;0.43;;;6.30;99.90;;;;;;5021204;28;20037;-76
2021/12/24 12:37:11;;;;;;;0.40;0.40;;;6.30;99.90;;;;;;5008024;28;20390;-76
2021/12/24 12:39:38;;;;;;;0.73;0.73;;;6.30;99.90;;;;;;5010439;28;20044;-76
2021/12/24 12:42:04;;;;;;;0.32;0.32;;;6.30;99.90;;;;;;5019651;28;20045;-76
2021/12/24 12:44:32;;;;;;;0.20;0.20;;;6.40;99.90;;;;;;5037703;28;20044;-76
2021/12/24 12:47:23;;;;;;;0.55;0.55;;;6.40;99.90;;;;;;5032616;28;20382;-76
2021/12/24 12:50:09;;;;;;;1.30;1.20;;;6.50;99.90;;;;;;5041300;28;20037;-76
2021/12/24 12:52:36;;;;;;;0.30;0.30;;;6.60;99.90;;;;;;5024931;28;20037;-76
2021/12/24 12:55:02;;;;;;;0.30;0.30;;;6.60;99.90;;;;;;5036264;28;20891;-76
2021/12/24 12:57:36;;;;;;;0.80;0.80;;;6.70;99.90;;;;;;5037155;28;20119;-76
2021/12/24 13:00:08;;;;;;;0.30;0.30;;;6.70;99.90;;;;;;5037567;28;20051;-76
2021/12/24 13:02:56;;;;;;;1.13;1.00;;;6.80;99.90;;;;;;5024705;28;20036;-76
2021/12/24 13:05:27;;;;;;;0.40;0.40;;;6.80;99.90;;;;;;5031073;28;20064;-76
2021/12/24 13:07:59;;;;;;;0.40;0.40;;;6.90;99.90;;;;;;5013891;28;20041;-76
2021/12/24 13:10:28;;;;;;;0.30;0.30;;;6.80;99.90;;;;;;5025593;28;20043;-76
2021/12/24 13:13:03;;;;;;;0.52;0.45;;;6.80;99.90;;;;;;5039101;28;20382;-76
2021/12/24 13:15:29;;;;;;;3.83;2.03;;;6.90;99.90;;;;;;5033469;28;20544;-76
2021/12/24 13:17:58;;;;;;;6.03;2.92;;;6.90;99.90;;;;;;5023123;28;20041;-77
2021/12/24 13:20:46;;;;;;;35.25;3.13;;;6.90;99.90;;;;;;5066827;28;20042;-77
2021/12/24 13:23:23;;;;;;;1.65;1.45;;;6.90;99.90;;;;;;5037291;28;20045;-77
2021/12/24 13:25:49;;;;;;;2.85;1.70;;;6.90;99.90;;;;;;5031751;28;20133;-75
2021/12/24 13:28:14;;;;;;;0.30;0.30;;;6.90;99.90;;;;;;5053234;28;20064;-75
2021/12/24 13:30:40;;;;;;;0.68;0.68;;;6.90;99.90;;;;;;5039376;28;20046;-75
2021/12/24 13:33:08;;;;;;;1.05;1.00;;;6.90;99.90;;;;;;5059629;28;20114;-75
2021/12/24 13:35:45;;;;;;;2.83;2.10;;;6.90;99.90;;;;;;5021214;28;20056;-75
2021/12/24 13:38:27;;;;;;;0.40;0.40;;;7.00;99.90;;;;;;5032131;28;20091;-75
2021/12/24 13:40:54;;;;;;;3.63;2.10;;;6.90;99.90;;;;;;5072233;28;20041;-76
2021/12/24 13:43:20;;;;;;;2.08;1.55;;;6.90;99.90;;;;;;5020056;28;20042;-76
2021/12/24 13:45:49;;;;;;;1.23;1.15;;;6.80;99.90;;;;;;5040298;28;20061;-75
2021/12/24 13:48:23;;;;;;;3.58;1.73;;;6.70;99.90;;;;;;5040546;28;20052;-76
2021/12/24 13:56:46;;;;;;;2.47;2.00;;;6.70;99.90;;;;;;5068217;28;20042;-75
2021/12/24 13:59:19;;;;;;;1.73;1.27;;;6.60;99.90;;;;;;5057254;28;20106;-76
2021/12/24 14:01:45;;;;;;;4.57;1.75;;;6.60;99.90;;;;;;5046575;28;20047;-78
2021/12/24 14:04:14;;;;;;;2.72;1.65;;;6.60;99.90;;;;;;5029394;28;20412;-78
2021/12/24 14:06:43;;;;;;;0.77;0.77;;;6.60;99.90;;;;;;5038653;28;20052;-77
2021/12/24 14:09:09;;;;;;;1.40;1.27;;;6.60;99.90;;;;;;5045318;28;20397;-77
2021/12/24 14:11:36;;;;;;;1.55;1.30;;;6.60;99.90;;;;;;5029930;28;20048;-77
2021/12/24 14:14:08;;;;;;;1.45;1.05;;;6.60;99.90;;;;;;5043819;28;20106;-76
2021/12/24 14:19:50;;;;;;;2.38;1.45;;;6.50;99.90;;;;;;5025793;28;20444;-76
2021/12/24 14:22:17;;;;;;;0.90;0.77;;;6.50;99.90;;;;;;5054205;28;20029;-77
2021/12/24 14:24:52;;;;;;;0.22;0.22;;;6.50;99.90;;;;;;5040636;28;20055;-77
2021/12/24 14:27:20;;;;;;;1.70;1.40;;;6.50;99.90;;;;;;5025367;28;20415;-77
2021/12/24 14:29:53;;;;;;;0.20;0.20;;;6.50;99.90;;;;;;5035045;28;20053;-77
2021/12/24 14:32:34;;;;;;;2.63;1.27;;;6.50;99.90;;;;;;5040338;28;20148;-77
2021/12/24 14:35:30;;;;;;;1.20;0.73;;;6.50;99.90;;;;;;5038894;28;20399;-76
2021/12/24 14:38:06;;;;;;;1.25;1.15;;;6.50;99.90;;;;;;5033981;28;20454;-76
2021/12/24 14:40:35;;;;;;;3.25;1.75;;;6.50;99.90;;;;;;5033227;28;20029;-76
2021/12/24 14:43:12;;;;;;;1.63;1.13;;;6.50;99.90;;;;;;5026761;28;20053;-76
2021/12/24 14:45:43;;;;;;;0.98;0.90;;;6.50;99.90;;;;;;5036667;28;20426;-77
2021/12/24 14:48:22;;;;;;;0.75;0.60;;;6.30;99.90;;;;;;5030776;28;20052;-77
2021/12/24 14:50:53;;;;;;;8.25;0.93;;;6.20;99.90;;;;;;5035226;28;20401;-76